createdAt,value
2024-03-03T00:00:35.407Z,0.00
2024-03-03T00:01:35.466Z,0.00
2024-03-03T00:02:35.527Z,0.00
2024-03-03T00:03:37.019Z,0.00
2024-03-03T00:04:35.696Z,0.00
2024-03-03T00:05:35.773Z,0.00
2024-03-03T00:06:35.905Z,0.00
2024-03-03T00:07:35.965Z,0.00
2024-03-03T00:08:36.015Z,0.00
2024-03-03T00:09:36.189Z,0.00
2024-03-03T00:10:36.146Z,0.00
2024-03-03T00:11:36.304Z,0.00
2024-03-03T00:12:36.368Z,0.00
2024-03-03T00:13:36.417Z,0.00
2024-03-03T00:14:36.463Z,0.00
2024-03-03T00:15:36.594Z,0.00
2024-03-03T00:16:36.638Z,0.00
2024-03-03T00:17:36.755Z,0.00
2024-03-03T00:18:36.833Z,0.00
2024-03-03T00:19:36.904Z,0.00
2024-03-03T00:20:36.975Z,0.00
2024-03-03T00:21:37.277Z,0.00
2024-03-03T00:22:37.217Z,0.00
2024-03-03T00:23:37.292Z,0.00
2024-03-03T00:24:37.387Z,0.00
2024-03-03T00:25:37.370Z,0.00
2024-03-03T00:26:37.435Z,0.00
2024-03-03T00:27:38.359Z,0.00
2024-03-03T00:28:37.608Z,0.00
2024-03-03T00:29:37.722Z,0.00
2024-03-03T00:30:37.882Z,0.00
2024-03-03T00:31:37.870Z,0.00
2024-03-03T00:32:37.945Z,0.00
2024-03-03T00:33:38.083Z,0.00
2024-03-03T00:34:38.125Z,0.00
2024-03-03T00:35:38.202Z,0.00
2024-03-03T00:36:38.299Z,0.00
2024-03-03T00:37:38.329Z,0.00
2024-03-03T00:38:38.563Z,0.00
2024-03-03T00:39:38.552Z,0.00
2024-03-03T00:40:38.570Z,0.00
2024-03-03T00:41:38.661Z,0.00
2024-03-03T00:42:38.784Z,0.00
2024-03-03T00:43:38.839Z,0.00
2024-03-03T00:44:38.972Z,0.00
2024-03-03T00:45:39.014Z,0.00
2024-03-03T00:46:39.098Z,0.00
2024-03-03T00:47:39.219Z,0.00
2024-03-03T00:48:39.306Z,0.00
2024-03-03T00:49:39.365Z,0.00
2024-03-03T00:50:39.459Z,0.00
2024-03-03T00:51:39.561Z,0.00
2024-03-03T00:52:39.642Z,0.00
2024-03-03T00:53:39.693Z,0.00
2024-03-03T00:54:39.826Z,0.00
2024-03-03T00:55:39.873Z,0.00
2024-03-03T00:56:39.969Z,0.00
2024-03-03T00:57:40.056Z,0.00
2024-03-03T00:58:40.127Z,0.00
2024-03-03T00:59:40.188Z,0.00
2024-03-03T01:00:40.317Z,0.00
2024-03-03T01:01:40.356Z,0.00
2024-03-03T01:02:40.465Z,0.00
2024-03-03T01:03:40.577Z,0.00
2024-03-03T01:04:40.641Z,0.00
2024-03-03T01:05:40.688Z,0.00
2024-03-03T01:06:40.825Z,0.00
2024-03-03T01:07:43.217Z,0.00
2024-03-03T01:08:40.956Z,0.00
2024-03-03T01:09:41.090Z,0.00
2024-03-03T01:10:41.130Z,0.00
2024-03-03T01:11:41.258Z,0.00
2024-03-03T01:12:41.267Z,0.00
2024-03-03T01:13:41.314Z,0.00
2024-03-03T01:14:41.429Z,0.00
2024-03-03T01:15:41.496Z,0.00
2024-03-03T01:16:41.543Z,0.00
2024-03-03T01:17:41.610Z,0.00
2024-03-03T01:18:41.712Z,0.00
2024-03-03T01:19:42.082Z,0.00
2024-03-03T01:20:41.871Z,0.00
2024-03-03T01:21:41.976Z,0.00
2024-03-03T01:22:42.063Z,0.00
2024-03-03T01:23:42.123Z,0.00
2024-03-03T01:24:42.296Z,0.00
2024-03-03T01:25:42.268Z,0.00
2024-03-03T01:26:42.365Z,0.00
2024-03-03T01:27:42.466Z,0.00
2024-03-03T01:28:42.512Z,0.00
2024-03-03T01:29:42.614Z,0.00
2024-03-03T01:30:42.766Z,0.00
2024-03-03T01:31:42.802Z,0.00
2024-03-03T01:32:42.933Z,0.00
2024-03-03T01:33:42.982Z,0.00
2024-03-03T01:34:43.057Z,0.00
2024-03-03T01:35:43.112Z,0.00
2024-03-03T01:36:43.231Z,0.00
2024-03-03T01:37:43.270Z,0.00
2024-03-03T01:38:43.343Z,0.00
2024-03-03T01:39:43.536Z,0.00
2024-03-03T01:40:43.504Z,0.00
2024-03-03T01:41:43.569Z,0.00
2024-03-03T01:42:43.697Z,0.00
2024-03-03T01:43:43.766Z,0.00
2024-03-03T01:44:43.878Z,0.00
2024-03-03T01:45:44.015Z,0.00
2024-03-03T01:46:44.046Z,0.00
2024-03-03T01:47:44.146Z,0.00
2024-03-03T01:48:44.263Z,0.00
2024-03-03T01:49:44.306Z,0.00
2024-03-03T01:50:44.369Z,0.00
2024-03-03T01:51:44.435Z,0.00
2024-03-03T01:52:44.518Z,0.00
2024-03-03T01:53:44.632Z,0.00
2024-03-03T01:54:44.716Z,0.00
2024-03-03T01:55:44.766Z,0.00
2024-03-03T01:56:44.937Z,0.00
2024-03-03T01:57:44.940Z,0.00
2024-03-03T01:58:45.011Z,0.00
2024-03-03T01:59:45.107Z,0.00
2024-03-03T02:00:45.208Z,0.00
2024-03-03T02:01:45.290Z,0.00
2024-03-03T02:02:45.312Z,0.00
2024-03-03T02:03:45.410Z,0.00
2024-03-03T02:04:45.484Z,0.00
2024-03-03T02:05:45.548Z,0.00
2024-03-03T02:06:45.628Z,0.00
2024-03-03T02:07:45.689Z,0.00
2024-03-03T02:08:45.783Z,0.00
2024-03-03T02:09:45.992Z,0.00
2024-03-03T02:10:45.994Z,0.00
2024-03-03T02:11:46.038Z,0.00
2024-03-03T02:12:46.152Z,0.00
2024-03-03T02:13:46.198Z,0.00
2024-03-03T02:14:46.306Z,0.00
2024-03-03T02:15:46.421Z,0.00
2024-03-03T02:16:46.428Z,0.00
2024-03-03T02:17:46.569Z,0.00
2024-03-03T02:18:46.618Z,0.00
2024-03-03T02:19:46.723Z,0.00
2024-03-03T02:20:46.776Z,0.00
2024-03-03T02:21:46.861Z,0.00
2024-03-03T02:22:46.909Z,0.00
2024-03-03T02:23:46.970Z,0.00
2024-03-03T02:24:47.157Z,0.00
2024-03-03T02:25:47.158Z,0.00
2024-03-03T02:26:47.258Z,0.00
2024-03-03T02:27:47.342Z,0.00
2024-03-03T02:28:47.397Z,0.00
2024-03-03T02:29:47.545Z,0.00
2024-03-03T02:30:47.556Z,0.00
2024-03-03T02:31:47.585Z,0.00
2024-03-03T02:32:47.752Z,0.00
2024-03-03T02:33:47.861Z,0.00
2024-03-03T02:34:48.077Z,0.00
2024-03-03T02:35:47.936Z,0.00
2024-03-03T02:36:48.048Z,0.00
2024-03-03T02:37:48.119Z,0.00
2024-03-03T02:38:48.204Z,0.00
2024-03-03T02:39:48.484Z,0.00
2024-03-03T02:40:48.357Z,0.00
2024-03-03T02:41:48.453Z,0.00
2024-03-03T02:42:48.550Z,0.00
2024-03-03T02:43:48.629Z,0.00
2024-03-03T02:44:48.820Z,0.00
2024-03-03T02:45:48.804Z,0.00
2024-03-03T02:46:48.831Z,0.00
2024-03-03T02:47:48.944Z,0.00
2024-03-03T02:48:49.139Z,0.00
2024-03-03T02:49:49.056Z,0.00
2024-03-03T02:50:49.127Z,0.00
2024-03-03T02:51:49.239Z,0.00
2024-03-03T02:52:49.320Z,0.00
2024-03-03T02:53:49.411Z,0.00
2024-03-03T02:54:49.918Z,0.00
2024-03-03T02:55:49.589Z,0.00
2024-03-03T02:56:49.659Z,0.00
2024-03-03T02:57:49.769Z,0.00
2024-03-03T02:58:49.810Z,0.00
2024-03-03T02:59:49.906Z,0.00
2024-03-03T03:00:50.141Z,0.00
2024-03-03T03:01:50.289Z,0.00
2024-03-03T03:02:50.143Z,0.00
2024-03-03T03:03:50.255Z,0.00
2024-03-03T03:04:50.322Z,0.00
2024-03-03T03:05:50.441Z,0.00
2024-03-03T03:06:50.521Z,0.00
2024-03-03T03:07:50.617Z,0.00
2024-03-03T03:08:50.668Z,0.00
2024-03-03T03:09:50.766Z,0.00
2024-03-03T03:10:50.852Z,0.00
2024-03-03T03:11:50.890Z,0.00
2024-03-03T03:12:51.025Z,0.00
2024-03-03T03:13:51.062Z,0.00
2024-03-03T03:14:51.148Z,0.00
2024-03-03T03:15:51.283Z,0.00
2024-03-03T03:16:51.292Z,0.00
2024-03-03T03:17:51.407Z,0.00
2024-03-03T03:18:51.508Z,0.00
2024-03-03T03:19:51.678Z,0.00
2024-03-03T03:20:51.604Z,0.00
2024-03-03T03:21:51.735Z,0.00
2024-03-03T03:22:51.766Z,0.00
2024-03-03T03:23:51.858Z,0.00
2024-03-03T03:24:51.982Z,0.00
2024-03-03T03:25:52.033Z,0.00
2024-03-03T03:26:52.080Z,0.00
2024-03-03T03:27:52.199Z,0.00
2024-03-03T03:28:52.219Z,0.00
2024-03-03T03:29:52.320Z,0.00
2024-03-03T03:30:52.461Z,0.00
2024-03-03T03:31:52.446Z,0.00
2024-03-03T03:32:52.587Z,0.00
2024-03-03T03:33:52.653Z,0.00
2024-03-03T03:34:52.726Z,0.00
2024-03-03T03:35:52.818Z,0.00
2024-03-03T03:36:52.940Z,0.00
2024-03-03T03:37:52.944Z,0.00
2024-03-03T03:38:53.026Z,0.00
2024-03-03T03:39:53.125Z,0.00
2024-03-03T03:40:53.160Z,0.00
2024-03-03T03:41:53.239Z,0.00
2024-03-03T03:42:53.365Z,0.00
2024-03-03T03:43:53.388Z,0.00
2024-03-03T03:44:53.457Z,0.00
2024-03-03T03:45:53.804Z,0.00
2024-03-03T03:46:53.643Z,0.00
2024-03-03T03:47:53.733Z,0.00
2024-03-03T03:48:53.812Z,0.00
2024-03-03T03:49:53.876Z,0.00
2024-03-03T03:50:53.991Z,0.00
2024-03-03T03:51:54.099Z,0.00
2024-03-03T03:52:54.123Z,0.00
2024-03-03T03:53:54.185Z,0.00
2024-03-03T03:54:54.266Z,0.00
2024-03-03T03:55:54.366Z,0.00
2024-03-03T03:56:54.397Z,0.00
2024-03-03T03:57:54.505Z,0.00
2024-03-03T03:58:54.561Z,0.00
2024-03-03T03:59:54.636Z,0.00
2024-03-03T04:00:54.766Z,0.00
2024-03-03T04:01:54.916Z,0.00
2024-03-03T04:02:54.884Z,0.00
2024-03-03T04:03:54.952Z,0.00
2024-03-03T04:04:55.056Z,0.00
2024-03-03T04:05:55.133Z,0.00
2024-03-03T04:06:55.242Z,0.00
2024-03-03T04:07:55.267Z,0.00
2024-03-03T04:08:55.334Z,0.00
2024-03-03T04:09:55.444Z,0.00
2024-03-03T04:10:55.516Z,0.00
2024-03-03T04:11:55.618Z,0.00
2024-03-03T04:12:55.728Z,0.00
2024-03-03T04:13:55.793Z,0.00
2024-03-03T04:14:55.846Z,0.00
2024-03-03T04:15:56.042Z,0.00
2024-03-03T04:16:56.018Z,0.00
2024-03-03T04:17:56.164Z,0.00
2024-03-03T04:18:56.154Z,0.00
2024-03-03T04:19:56.201Z,0.00
2024-03-03T04:20:56.292Z,0.00
2024-03-03T04:21:56.389Z,0.00
2024-03-03T04:22:56.409Z,0.00
2024-03-03T04:23:56.511Z,0.00
2024-03-03T04:24:56.612Z,0.00
2024-03-03T04:25:56.700Z,0.00
2024-03-03T04:26:56.738Z,0.00
2024-03-03T04:27:56.879Z,0.00
2024-03-03T04:28:56.922Z,0.00
2024-03-03T04:29:56.993Z,0.00
2024-03-03T04:30:57.111Z,0.00
2024-03-03T04:31:57.145Z,0.00
2024-03-03T04:32:57.272Z,0.00
2024-03-03T04:33:57.367Z,0.00
2024-03-03T04:34:57.371Z,0.00
2024-03-03T04:35:57.434Z,0.00
2024-03-03T04:36:57.510Z,0.00
2024-03-03T04:37:57.564Z,0.00
2024-03-03T04:38:57.627Z,0.00
2024-03-03T04:39:57.843Z,0.00
2024-03-03T04:40:57.792Z,0.00
2024-03-03T04:41:57.865Z,0.00
2024-03-03T04:42:58.011Z,0.00
2024-03-03T04:43:58.052Z,0.00
2024-03-03T04:44:58.135Z,0.00
2024-03-03T04:45:58.792Z,0.00
2024-03-03T04:46:58.261Z,0.00
2024-03-03T04:47:58.370Z,0.00
2024-03-03T04:48:58.431Z,0.00
2024-03-03T04:49:58.487Z,0.00
2024-03-03T04:50:58.574Z,0.00
2024-03-03T04:51:58.672Z,0.00
2024-03-03T04:52:58.734Z,0.00
2024-03-03T04:53:58.828Z,0.00
2024-03-03T04:54:58.931Z,0.00
2024-03-03T04:55:58.995Z,0.00
2024-03-03T04:56:59.050Z,0.00
2024-03-03T04:57:59.146Z,0.00
2024-03-03T04:58:59.304Z,0.00
2024-03-03T04:59:59.322Z,0.00
2024-03-03T05:00:59.515Z,0.00
2024-03-03T05:01:59.496Z,0.00
2024-03-03T05:02:59.505Z,0.00
2024-03-03T05:03:59.600Z,0.00
2024-03-03T05:04:59.709Z,0.00
2024-03-03T05:05:59.827Z,0.00
2024-03-03T05:06:59.846Z,0.00
2024-03-03T05:07:59.914Z,0.00
2024-03-03T05:08:59.981Z,0.00
2024-03-03T05:10:00.126Z,0.00
2024-03-03T05:11:00.364Z,0.00
2024-03-03T05:12:00.215Z,0.00
2024-03-03T05:13:00.329Z,0.00
2024-03-03T05:14:00.394Z,0.00
2024-03-03T05:15:00.492Z,0.00
2024-03-03T05:16:00.832Z,0.00
2024-03-03T05:17:00.650Z,0.00
2024-03-03T05:18:00.758Z,0.00
2024-03-03T05:19:00.901Z,0.00
2024-03-03T05:20:00.885Z,0.00
2024-03-03T05:21:01.203Z,0.00
2024-03-03T05:22:01.055Z,0.00
2024-03-03T05:23:01.119Z,0.00
2024-03-03T05:24:01.199Z,0.00
2024-03-03T05:25:01.349Z,0.00
2024-03-03T05:26:01.616Z,0.00
2024-03-03T05:27:01.396Z,0.00
2024-03-03T05:28:01.562Z,0.00
2024-03-03T05:29:01.573Z,0.00
2024-03-03T05:30:01.681Z,0.00
2024-03-03T05:31:01.835Z,0.00
2024-03-03T05:32:01.809Z,0.00
2024-03-03T05:33:01.989Z,0.00
2024-03-03T05:34:02.086Z,0.00
2024-03-03T05:35:02.044Z,0.00
2024-03-03T05:36:02.317Z,0.00
2024-03-03T05:37:02.240Z,0.00
2024-03-03T05:38:02.251Z,0.00
2024-03-03T05:39:02.376Z,0.00
2024-03-03T05:40:02.548Z,0.00
2024-03-03T05:41:02.508Z,0.00
2024-03-03T05:42:02.580Z,0.00
2024-03-03T05:43:02.724Z,0.00
2024-03-03T05:44:02.729Z,0.00
2024-03-03T05:45:02.844Z,0.00
2024-03-03T05:46:02.992Z,0.00
2024-03-03T05:47:02.970Z,0.00
2024-03-03T05:48:03.148Z,0.00
2024-03-03T05:49:03.134Z,0.00
2024-03-03T05:50:03.207Z,0.00
2024-03-03T05:51:03.267Z,0.00
2024-03-03T05:52:03.379Z,0.00
2024-03-03T05:53:03.421Z,0.00
2024-03-03T05:54:03.511Z,0.00
2024-03-03T05:55:03.629Z,0.00
2024-03-03T05:56:03.677Z,0.00
2024-03-03T05:57:03.717Z,0.00
2024-03-03T05:58:03.867Z,0.00
2024-03-03T05:59:03.858Z,0.00
2024-03-03T06:00:03.936Z,0.00
2024-03-03T06:01:04.106Z,0.00
2024-03-03T06:02:04.160Z,5.62
2024-03-03T06:03:04.175Z,5.62
2024-03-03T06:04:04.290Z,5.62
2024-03-03T06:05:04.334Z,5.62
2024-03-03T06:06:04.447Z,5.62
2024-03-03T06:07:04.514Z,5.62
2024-03-03T06:08:04.579Z,5.62
2024-03-03T06:09:04.665Z,11.25
2024-03-03T06:10:04.777Z,11.25
2024-03-03T06:11:04.909Z,11.25
2024-03-03T06:12:04.900Z,11.25
2024-03-03T06:13:05.022Z,11.25
2024-03-03T06:14:05.069Z,11.25
2024-03-03T06:15:05.160Z,16.88
2024-03-03T06:16:05.283Z,16.88
2024-03-03T06:17:05.304Z,16.88
2024-03-03T06:18:05.464Z,16.88
2024-03-03T06:19:05.519Z,16.88
2024-03-03T06:20:05.582Z,16.88
2024-03-03T06:21:05.688Z,22.50
2024-03-03T06:22:05.772Z,22.50
2024-03-03T06:23:05.846Z,22.50
2024-03-03T06:24:05.926Z,22.50
2024-03-03T06:25:06.070Z,22.50
2024-03-03T06:26:06.120Z,22.50
2024-03-03T06:27:06.167Z,28.12
2024-03-03T06:28:06.265Z,28.12
2024-03-03T06:29:07.446Z,28.12
2024-03-03T06:30:06.401Z,28.12
2024-03-03T06:31:06.503Z,28.12
2024-03-03T06:32:06.592Z,28.12
2024-03-03T06:33:06.706Z,28.12
2024-03-03T06:34:06.827Z,33.75
2024-03-03T06:35:06.848Z,33.75
2024-03-03T06:36:06.946Z,33.75
2024-03-03T06:37:07.078Z,33.75
2024-03-03T06:38:07.072Z,33.75
2024-03-03T06:39:07.160Z,39.38
2024-03-03T06:40:07.257Z,39.38
2024-03-03T06:41:07.354Z,39.38
2024-03-03T06:42:07.462Z,45.00
2024-03-03T06:43:07.509Z,50.62
2024-03-03T06:44:07.564Z,50.62
2024-03-03T06:45:07.653Z,56.25
2024-03-03T06:46:07.786Z,61.88
2024-03-03T06:47:07.832Z,61.88
2024-03-03T06:48:07.944Z,67.50
2024-03-03T06:49:08.000Z,67.50
2024-03-03T06:50:08.077Z,73.12
2024-03-03T06:51:08.181Z,78.75
2024-03-03T06:52:08.395Z,78.75
2024-03-03T06:53:08.297Z,84.38
2024-03-03T06:54:08.384Z,90.00
2024-03-03T06:55:08.601Z,95.62
2024-03-03T06:56:08.603Z,101.25
2024-03-03T06:57:08.667Z,101.25
2024-03-03T06:58:08.744Z,106.88
2024-03-03T06:59:08.808Z,112.50
2024-03-03T07:00:08.913Z,118.12
2024-03-03T07:01:09.088Z,123.75
2024-03-03T07:02:09.156Z,129.38
2024-03-03T07:03:09.167Z,129.38
2024-03-03T07:04:09.316Z,129.38
2024-03-03T07:05:09.412Z,129.38
2024-03-03T07:06:09.393Z,129.38
2024-03-03T07:07:09.469Z,123.75
2024-03-03T07:08:09.518Z,123.75
2024-03-03T07:09:09.709Z,123.75
2024-03-03T07:10:09.803Z,123.75
2024-03-03T07:11:09.878Z,123.75
2024-03-03T07:12:09.876Z,123.75
2024-03-03T07:13:10.001Z,123.75
2024-03-03T07:14:10.061Z,118.12
2024-03-03T07:15:10.141Z,118.12
2024-03-03T07:16:10.331Z,123.75
2024-03-03T07:17:10.298Z,123.75
2024-03-03T07:18:10.459Z,123.75
2024-03-03T07:19:10.528Z,129.38
2024-03-03T07:20:10.567Z,129.38
2024-03-03T07:21:10.641Z,123.75
2024-03-03T07:22:10.787Z,123.75
2024-03-03T07:23:10.796Z,123.75
2024-03-03T07:24:10.918Z,118.12
2024-03-03T07:25:11.015Z,118.12
2024-03-03T07:26:11.102Z,118.12
2024-03-03T07:27:11.135Z,118.12
2024-03-03T07:28:11.355Z,123.75
2024-03-03T07:29:11.294Z,129.38
2024-03-03T07:30:11.379Z,135.00
2024-03-03T07:31:11.508Z,135.00
2024-03-03T07:32:11.551Z,140.62
2024-03-03T07:33:11.706Z,146.25
2024-03-03T07:34:11.749Z,151.88
2024-03-03T07:35:11.780Z,157.50
2024-03-03T07:36:11.892Z,157.50
2024-03-03T07:37:12.039Z,163.12
2024-03-03T07:38:12.034Z,168.75
2024-03-03T07:39:12.114Z,174.38
2024-03-03T07:40:12.264Z,168.75
2024-03-03T07:41:12.313Z,174.38
2024-03-03T07:42:12.372Z,174.38
2024-03-03T07:43:12.480Z,180.00
2024-03-03T07:44:12.538Z,180.00
2024-03-03T07:45:12.600Z,185.62
2024-03-03T07:46:12.763Z,191.25
2024-03-03T07:47:12.757Z,191.25
2024-03-03T07:48:12.844Z,191.25
2024-03-03T07:49:12.937Z,196.88
2024-03-03T07:50:12.997Z,196.88
2024-03-03T07:51:13.076Z,196.88
2024-03-03T07:52:13.229Z,202.50
2024-03-03T07:53:13.218Z,202.50
2024-03-03T07:54:13.285Z,202.50
2024-03-03T07:55:13.404Z,208.12
2024-03-03T07:56:13.449Z,208.12
2024-03-03T07:57:13.516Z,208.12
2024-03-03T07:58:13.609Z,213.75
2024-03-03T07:59:13.677Z,213.75
2024-03-03T08:00:13.756Z,219.38
2024-03-03T08:01:13.975Z,225.00
2024-03-03T08:02:13.952Z,225.00
2024-03-03T08:03:13.978Z,230.62
2024-03-03T08:04:14.073Z,236.25
2024-03-03T08:05:14.162Z,241.88
2024-03-03T08:06:14.213Z,247.50
2024-03-03T08:07:14.308Z,253.12
2024-03-03T08:08:14.366Z,258.75
2024-03-03T08:09:14.459Z,264.38
2024-03-03T08:10:14.586Z,270.00
2024-03-03T08:11:14.669Z,281.25
2024-03-03T08:12:14.705Z,286.88
2024-03-03T08:13:14.770Z,292.50
2024-03-03T08:14:14.843Z,303.75
2024-03-03T08:15:14.920Z,315.00
2024-03-03T08:16:15.107Z,326.25
2024-03-03T08:17:15.104Z,343.12
2024-03-03T08:18:15.230Z,354.38
2024-03-03T08:19:15.255Z,365.62
2024-03-03T08:20:15.299Z,376.88
2024-03-03T08:21:15.397Z,388.12
2024-03-03T08:22:15.515Z,393.75
2024-03-03T08:23:15.532Z,410.62
2024-03-03T08:24:15.612Z,433.12
2024-03-03T08:25:15.794Z,438.75
2024-03-03T08:26:15.779Z,438.75
2024-03-03T08:27:15.840Z,438.75
2024-03-03T08:28:15.981Z,438.75
2024-03-03T08:29:15.987Z,433.12
2024-03-03T08:30:16.065Z,427.50
2024-03-03T08:31:16.183Z,427.50
2024-03-03T08:32:16.209Z,433.12
2024-03-03T08:33:16.321Z,438.75
2024-03-03T08:34:16.413Z,450.00
2024-03-03T08:35:16.396Z,461.25
2024-03-03T08:36:16.481Z,478.12
2024-03-03T08:37:16.601Z,506.25
2024-03-03T08:38:16.662Z,545.62
2024-03-03T08:39:16.716Z,562.50
2024-03-03T08:40:16.892Z,579.38
2024-03-03T08:41:16.890Z,691.88
2024-03-03T08:42:16.975Z,742.50
2024-03-03T08:43:17.105Z,714.38
2024-03-03T08:44:18.403Z,781.88
2024-03-03T08:45:17.366Z,804.38
2024-03-03T08:46:17.427Z,765.00
2024-03-03T08:47:17.424Z,781.88
2024-03-03T08:48:17.493Z,697.50
2024-03-03T08:49:17.615Z,590.62
2024-03-03T08:50:17.628Z,506.25
2024-03-03T08:51:17.723Z,483.75
2024-03-03T08:52:17.889Z,466.88
2024-03-03T08:53:17.877Z,450.00
2024-03-03T08:54:17.945Z,416.25
2024-03-03T08:55:18.076Z,399.38
2024-03-03T08:56:18.152Z,393.75
2024-03-03T08:57:18.208Z,388.12
2024-03-03T08:58:18.344Z,382.50
2024-03-03T08:59:18.400Z,382.50
2024-03-03T09:00:18.466Z,382.50
2024-03-03T09:01:18.627Z,382.50
2024-03-03T09:02:18.608Z,388.12
2024-03-03T09:03:18.701Z,393.75
2024-03-03T09:04:18.810Z,393.75
2024-03-03T09:05:18.853Z,388.12
2024-03-03T09:06:18.972Z,388.12
2024-03-03T09:07:19.106Z,388.12
2024-03-03T09:08:19.137Z,393.75
2024-03-03T09:09:19.212Z,393.75
2024-03-03T09:10:19.335Z,405.00
2024-03-03T09:11:19.450Z,427.50
2024-03-03T09:12:19.440Z,517.50
2024-03-03T09:13:19.630Z,601.88
2024-03-03T09:14:19.612Z,635.62
2024-03-03T09:15:19.687Z,680.62
2024-03-03T09:16:22.739Z,815.62
2024-03-03T09:17:19.826Z,1001.25
2024-03-03T09:18:19.922Z,1631.25
2024-03-03T09:19:20.148Z,2036.25
2024-03-03T09:20:20.099Z,1822.50
2024-03-03T09:21:20.158Z,1665.00
2024-03-03T09:22:20.272Z,1850.62
2024-03-03T09:23:20.296Z,2013.75
2024-03-03T09:24:20.675Z,2047.50
2024-03-03T09:25:20.514Z,2176.88
2024-03-03T09:26:20.593Z,2351.25
2024-03-03T09:27:20.636Z,2373.75
2024-03-03T09:28:20.822Z,2356.88
2024-03-03T09:29:24.010Z,2390.62
2024-03-03T09:30:20.831Z,2238.75
2024-03-03T09:31:21.026Z,1445.62
2024-03-03T09:32:20.996Z,1035.00
2024-03-03T09:33:21.084Z,933.75
2024-03-03T09:34:21.305Z,956.25
2024-03-03T09:35:21.251Z,916.88
2024-03-03T09:36:21.333Z,939.38
2024-03-03T09:37:21.480Z,1046.25
2024-03-03T09:38:21.502Z,1130.62
2024-03-03T09:39:21.599Z,1102.50
2024-03-03T09:40:21.693Z,1530.00
2024-03-03T09:41:21.787Z,1800.00
2024-03-03T09:42:21.836Z,1338.75
2024-03-03T09:43:22.012Z,1473.75
2024-03-03T09:44:22.003Z,1288.12
2024-03-03T09:45:22.124Z,1057.50
2024-03-03T09:46:22.373Z,1125.00
2024-03-03T09:47:22.280Z,1316.25
2024-03-03T09:48:22.364Z,1485.00
2024-03-03T09:49:22.532Z,1485.00
2024-03-03T09:50:22.502Z,1125.00
2024-03-03T09:51:22.617Z,1029.38
2024-03-03T09:52:22.696Z,1029.38
2024-03-03T09:53:22.781Z,1085.62
2024-03-03T09:54:22.836Z,1001.25
2024-03-03T09:55:23.197Z,956.25
2024-03-03T09:56:23.018Z,888.75
2024-03-03T09:57:23.078Z,736.88
2024-03-03T09:58:23.176Z,691.88
2024-03-03T09:59:23.220Z,663.75
2024-03-03T10:00:23.295Z,646.88
2024-03-03T10:01:23.447Z,658.12
2024-03-03T10:02:25.565Z,708.75
2024-03-03T10:03:23.513Z,916.88
2024-03-03T10:04:23.699Z,1091.25
2024-03-03T10:05:23.672Z,1288.12
2024-03-03T10:06:23.772Z,1327.50
2024-03-03T10:07:24.035Z,1788.75
2024-03-03T10:08:23.926Z,1884.38
2024-03-03T10:09:23.991Z,1895.62
2024-03-03T10:10:24.156Z,1895.62
2024-03-03T10:11:24.199Z,1890.00
2024-03-03T10:12:27.583Z,1839.38
2024-03-03T10:13:24.317Z,1788.75
2024-03-03T10:14:24.372Z,1738.12
2024-03-03T10:15:24.439Z,1462.50
2024-03-03T10:16:24.582Z,1608.75
2024-03-03T10:17:24.663Z,843.75
2024-03-03T10:18:24.689Z,770.62
2024-03-03T10:19:24.807Z,630.00
2024-03-03T10:20:24.853Z,596.25
2024-03-03T10:21:24.939Z,573.75
2024-03-03T10:22:25.052Z,573.75
2024-03-03T10:23:25.368Z,596.25
2024-03-03T10:24:25.586Z,573.75
2024-03-03T10:25:25.413Z,641.25
2024-03-03T10:26:25.366Z,652.50
2024-03-03T10:27:25.448Z,601.88
2024-03-03T10:28:25.814Z,562.50
2024-03-03T10:29:25.639Z,540.00
2024-03-03T10:30:25.724Z,528.75
2024-03-03T10:31:25.877Z,534.38
2024-03-03T10:32:25.993Z,540.00
2024-03-03T10:33:25.954Z,551.25
2024-03-03T10:34:26.248Z,562.50
2024-03-03T10:35:26.107Z,596.25
2024-03-03T10:36:26.183Z,607.50
2024-03-03T10:37:26.347Z,646.88
2024-03-03T10:38:26.327Z,714.38
2024-03-03T10:39:26.419Z,663.75
2024-03-03T10:40:26.527Z,669.38
2024-03-03T10:41:26.560Z,680.62
2024-03-03T10:42:26.795Z,703.12
2024-03-03T10:43:26.769Z,703.12
2024-03-03T10:44:26.761Z,714.38
2024-03-03T10:45:26.841Z,714.38
2024-03-03T10:46:26.953Z,742.50
2024-03-03T10:47:27.034Z,776.25
2024-03-03T10:48:27.057Z,748.12
2024-03-03T10:49:27.230Z,725.62
2024-03-03T10:50:27.224Z,871.88
2024-03-03T10:51:27.279Z,759.38
2024-03-03T10:52:27.487Z,776.25
2024-03-03T10:53:29.773Z,860.62
2024-03-03T10:54:27.527Z,776.25
2024-03-03T10:55:27.649Z,725.62
2024-03-03T10:56:27.725Z,703.12
2024-03-03T10:57:27.777Z,703.12
2024-03-03T10:58:28.042Z,703.12
2024-03-03T10:59:31.065Z,686.25
2024-03-03T11:00:28.016Z,663.75
2024-03-03T11:01:28.160Z,658.12
2024-03-03T11:02:28.160Z,658.12
2024-03-03T11:03:28.222Z,663.75
2024-03-03T11:04:28.356Z,703.12
2024-03-03T11:05:30.945Z,675.00
2024-03-03T11:06:28.478Z,697.50
2024-03-03T11:07:28.591Z,708.75
2024-03-03T11:08:28.621Z,708.75
2024-03-03T11:09:28.703Z,725.62
2024-03-03T11:10:28.904Z,675.00
2024-03-03T11:11:31.780Z,669.38
2024-03-03T11:12:28.925Z,703.12
2024-03-03T11:13:29.067Z,708.75
2024-03-03T11:14:29.079Z,680.62
2024-03-03T11:15:29.164Z,658.12
2024-03-03T11:16:29.304Z,641.25
2024-03-03T11:17:31.380Z,624.38
2024-03-03T11:18:29.394Z,630.00
2024-03-03T11:19:29.529Z,624.38
2024-03-03T11:20:29.548Z,635.62
2024-03-03T11:21:29.638Z,641.25
2024-03-03T11:22:29.786Z,658.12
2024-03-03T11:23:29.782Z,624.38
2024-03-03T11:24:29.872Z,675.00
2024-03-03T11:25:30.062Z,691.88
2024-03-03T11:26:30.058Z,697.50
2024-03-03T11:27:30.090Z,714.38
2024-03-03T11:28:30.287Z,720.00
2024-03-03T11:29:30.252Z,708.75
2024-03-03T11:30:30.342Z,646.88
2024-03-03T11:31:30.506Z,635.62
2024-03-03T11:32:30.584Z,635.62
2024-03-03T11:33:30.582Z,613.12
2024-03-03T11:34:30.692Z,618.75
2024-03-03T11:35:30.720Z,635.62
2024-03-03T11:36:30.831Z,641.25
2024-03-03T11:37:30.935Z,630.00
2024-03-03T11:38:31.001Z,613.12
2024-03-03T11:39:31.053Z,607.50
2024-03-03T11:40:31.177Z,613.12
2024-03-03T11:41:31.213Z,596.25
2024-03-03T11:42:31.265Z,562.50
2024-03-03T11:43:31.350Z,556.88
2024-03-03T11:44:31.412Z,540.00
2024-03-03T11:45:31.470Z,511.88
2024-03-03T11:46:31.651Z,478.12
2024-03-03T11:47:31.670Z,466.88
2024-03-03T11:48:31.752Z,444.38
2024-03-03T11:49:31.876Z,421.88
2024-03-03T11:50:31.916Z,410.62
2024-03-03T11:51:32.010Z,405.00
2024-03-03T11:52:32.138Z,393.75
2024-03-03T11:53:32.150Z,393.75
2024-03-03T11:54:32.232Z,399.38
2024-03-03T11:55:32.509Z,399.38
2024-03-03T11:56:32.401Z,399.38
2024-03-03T11:57:32.517Z,399.38
2024-03-03T11:58:32.606Z,399.38
2024-03-03T11:59:32.642Z,399.38
2024-03-03T12:00:32.725Z,405.00
2024-03-03T12:01:32.911Z,410.62
2024-03-03T12:02:33.511Z,410.62
2024-03-03T12:03:32.947Z,416.25
2024-03-03T12:04:33.087Z,416.25
2024-03-03T12:05:33.100Z,421.88
2024-03-03T12:06:33.219Z,421.88
2024-03-03T12:07:33.332Z,421.88
2024-03-03T12:08:33.348Z,421.88
2024-03-03T12:09:33.467Z,421.88
2024-03-03T12:10:34.149Z,421.88
2024-03-03T12:11:33.687Z,421.88
2024-03-03T12:12:33.679Z,416.25
2024-03-03T12:13:33.831Z,416.25
2024-03-03T12:14:33.827Z,416.25
2024-03-03T12:15:33.915Z,410.62
2024-03-03T12:16:34.145Z,405.00
2024-03-03T12:17:34.077Z,410.62
2024-03-03T12:18:34.152Z,405.00
2024-03-03T12:19:34.266Z,399.38
2024-03-03T12:20:34.389Z,393.75
2024-03-03T12:21:34.433Z,388.12
2024-03-03T12:22:34.594Z,376.88
2024-03-03T12:23:34.585Z,371.25
2024-03-03T12:24:34.682Z,365.62
2024-03-03T12:25:34.814Z,354.38
2024-03-03T12:26:34.858Z,348.75
2024-03-03T12:27:34.900Z,343.12
2024-03-03T12:28:35.021Z,337.50
2024-03-03T12:29:35.074Z,331.88
2024-03-03T12:30:35.144Z,326.25
2024-03-03T12:31:35.268Z,320.62
2024-03-03T12:32:35.394Z,315.00
2024-03-03T12:33:35.372Z,309.38
2024-03-03T12:34:35.476Z,303.75
2024-03-03T12:35:35.537Z,303.75
2024-03-03T12:36:35.623Z,303.75
2024-03-03T12:37:35.702Z,298.12
2024-03-03T12:38:35.784Z,298.12
2024-03-03T12:39:35.864Z,298.12
2024-03-03T12:40:35.977Z,292.50
2024-03-03T12:41:36.063Z,298.12
2024-03-03T12:42:36.109Z,298.12
2024-03-03T12:43:36.233Z,292.50
2024-03-03T12:44:36.314Z,292.50
2024-03-03T12:45:36.391Z,292.50
2024-03-03T12:46:36.487Z,286.88
2024-03-03T12:47:36.521Z,286.88
2024-03-03T12:48:36.612Z,281.25
2024-03-03T12:49:36.676Z,275.62
2024-03-03T12:50:36.749Z,281.25
2024-03-03T12:51:36.850Z,275.62
2024-03-03T12:52:36.942Z,281.25